PDT,Max TemperatureF,Mean TemperatureF,Min TemperatureF,Max Dew PointF,MeanDew PointF,Min DewpointF,Max Humidity, Mean Humidity, Min Humidity, Max Sea Level PressureIn, Mean Sea Level PressureIn, Min Sea Level PressureIn, Max VisibilityMiles, Mean VisibilityMiles, Min VisibilityMiles, Max Wind SpeedMPH, Mean Wind SpeedMPH, Max Gust SpeedMPH,PrecipitationIn, CloudCover, Events, WindDirDegrees
2013-6-1,100,86,72,34,22,13,25,11,4,29.86,29.79,29.71,10,10,6,10,3,20,0.00,0,,305
2013-6-2,104,88,71,32,27,22,18,11,6,29.73,29.67,29.59,10,10,5,23,8,30,0.00,0,,242
2013-6-3,100,82,66,39,31,27,23,15,8,29.74,29.69,29.64,10,10,6,22,8,28,0.00,0,,234
2013-6-4,99,84,68,33,26,18,25,13,6,29.81,29.77,29.72,10,10,5,18,6,18,0.00,0,,275
2013-6-5,102,86,72,27,21,3,16,10,4,29.87,29.81,29.73,10,10,8,17,8,,0.00,0,,277
2013-6-6,106,90,75,34,26,20,18,10,5,29.80,29.75,29.68,10,10,8,18,9,21,0.00,0,,268
2013-6-7,109,93,78,35,27,19,17,10,5,29.76,29.70,29.63,10,10,9,16,9,21,0.00,0,,255
2013-6-8,109,94,79,42,27,15,24,11,4,29.75,29.71,29.67,10,10,9,22,10,26,0.00,0,,227
2013-6-9,102,88,73,45,35,21,34,17,6,29.91,29.78,29.74,10,10,10,21,8,29,0.00,0,,190
2013-6-10,97,84,71,34,25,14,22,12,5,29.91,29.79,29.74,10,10,7,29,9,39,0.00,0,,238
2013-6-11,102,85,70,36,30,23,28,15,6,29.89,29.84,29.77,10,10,10,18,8,,0.00,0,,286
2013-6-12,102,88,75,40,30,24,17,13,7,29.87,29.83,29.79,10,10,10,18,6,26,0.00,1,,241
2013-6-13,100,86,73,40,30,18,29,15,5,29.92,29.84,29.75,10,10,10,18,9,21,0.00,0,,292
2013-6-14,99,84,68,34,22,8,24,12,4,29.87,29.79,29.70,10,10,10,21,11,21,0.00,0,,278
2013-6-15,100,82,66,31,17,1,22,11,4,29.84,29.80,29.75,10,10,10,21,10,28,0.00,0,,257
2013-6-16,99,84,69,31,17,-1,20,11,4,29.94,29.87,29.81,10,10,9,18,9,29,0.00,0,,286
2013-6-17,100,86,73,34,24,16,19,11,5,29.92,29.85,29.76,10,10,10,21,10,29,0.00,0,,313
2013-6-18,100,86,73,41,29,18,22,14,5,29.83,29.76,29.66,10,10,10,23,10,30,0.00,0,,276
2013-6-19,97,81,66,44,24,4,40,17,4,29.80,29.73,29.68,10,10,9,26,13,37,0.00,0,,317
2013-6-20,97,81,66,36,24,15,24,14,5,29.80,29.75,29.70,10,10,10,20,13,26,0.00,0,,299
2013-6-21,98,83,70,40,27,20,25,14,6,29.83,29.77,29.70,10,10,8,15,9,,0.00,0,,314
2013-6-22,98,85,73,44,31,25,26,15,8,29.82,29.75,29.68,10,10,10,16,9,29,0.00,0,,307
2013-6-23,96,85,75,46,36,26,31,19,9,29.74,29.69,29.61,10,10,10,23,11,29,0.00,0,,294
2013-6-24,91,80,69,51,43,36,42,28,15,29.87,29.75,29.68,10,10,10,23,11,23,0.00,1,,297
2013-6-25,99,84,71,53,49,45,49,31,16,29.90,29.84,29.78,10,10,10,18,8,28,0.00,0,,318
2013-6-26,104,90,77,53,51,47,43,28,15,29.94,29.89,29.83,10,10,9,18,9,24,0.00,0,,261
2013-6-27,107,92,78,55,49,40,40,23,13,30.00,29.94,29.88,10,10,7,17,9,,0.00,0,,275
2013-6-28,111,96,82,44,39,33,26,14,7,29.94,29.86,29.76,10,10,5,17,8,20,0.00,0,,305
2013-6-29,114,100,88,43,35,29,18,11,6,29.84,29.77,29.68,10,10,8,14,6,,0.00,0,,294
2013-6-30,115,100,87,46,42,37,22,14,7,29.78,29.72,29.64,10,10,10,17,10,22,0.00,0,,261